Time;durP1;ratioP1;P1;durP2;ratioP2;P2;SDS_P1;SDS_P2;PMS_P1;PMS_P2;Temp;Humidity;BMP_temperature;BMP_pressure;BME280_temperature;BME280_humidity;BME280_pressure;Samples;Min_cycle;Max_cycle;Signal;HPM_P1;HPM_P2
2021/07/15 00:00:42;;;;;;;21.25;11.57;;;;;;;22.54;58.71;100518.59;1814236;77;22614;-64
2021/07/15 00:03:19;;;;;;;17.00;11.70;;;;;;;22.59;58.93;100523.20;1814732;77;22198;-64
2021/07/15 00:05:53;;;;;;;29.30;16.15;;;;;;;22.65;58.86;100524.17;1834485;77;22300;-58
2021/07/15 00:08:27;;;;;;;27.93;17.67;;;;;;;22.66;58.68;100527.73;1815909;77;22159;-57
2021/07/15 00:11:08;;;;;;;29.87;19.25;;;;;;;22.67;58.60;100525.44;1843138;77;22168;-65
2021/07/15 00:13:41;;;;;;;26.95;17.42;;;;;;;22.62;58.64;100535.09;1816322;77;22210;-57
2021/07/15 00:16:33;;;;;;;27.10;17.42;;;;;;;22.57;58.76;100534.03;1834432;77;22132;-57
2021/07/15 00:19:11;;;;;;;23.77;16.32;;;;;;;22.51;58.98;100529.53;1804719;77;22190;-65
2021/07/15 00:22:03;;;;;;;23.20;15.05;;;;;;;22.45;59.24;100533.42;1813670;77;22178;-65
2021/07/15 00:24:37;;;;;;;22.35;14.80;;;;;;;22.41;59.40;100533.19;1821455;77;22193;-57
2021/07/15 00:27:29;;;;;;;24.25;15.88;;;;;;;22.36;59.54;100525.89;1822184;77;22171;-65
2021/07/15 00:30:04;;;;;;;19.77;14.58;;;;;;;22.31;59.59;100522.16;1825252;77;22135;-65
2021/07/15 00:32:57;;;;;;;20.55;14.75;;;;;;;22.28;59.65;100529.92;1825884;77;22175;-57
2021/07/15 00:35:32;;;;;;;20.32;14.55;;;;;;;22.27;59.70;100528.19;1834597;77;22592;-65
2021/07/15 00:38:24;;;;;;;21.68;14.83;;;;;;;22.24;59.76;100516.30;1816936;77;22723;-64
2021/07/15 00:40:57;;;;;;;18.80;14.03;;;;;;;22.21;59.92;100519.16;1837413;77;22169;-65
2021/07/15 00:43:49;;;;;;;18.20;13.18;;;;;;;22.19;59.97;100522.88;1830908;77;22161;-65
2021/07/15 00:46:23;;;;;;;19.57;12.13;;;;;;;22.14;60.07;100521.32;1833730;77;22155;-59
2021/07/15 00:48:56;;;;;;;19.42;11.75;;;;;;;22.08;60.11;100517.66;1807130;77;22205;-65
2021/07/15 00:51:48;;;;;;;15.93;12.30;;;;;;;22.02;60.00;100523.41;1852832;77;22131;-65
2021/07/15 00:54:21;;;;;;;17.25;11.00;;;;;;;21.89;60.10;100516.52;1806612;77;22213;-57
2021/07/15 00:57:14;;;;;;;13.85;9.38;;;;;;;21.80;60.38;100511.23;1828779;77;22575;-64
2021/07/15 00:59:48;;;;;;;15.05;9.88;;;;;;;21.67;60.61;100514.22;1906348;74;22587;-58
2021/07/15 01:02:40;;;;;;;11.15;8.35;;;;;;;21.57;60.93;100510.32;1848073;77;22229;-58
2021/07/15 01:05:28;;;;;;;10.65;7.47;;;;;;;21.56;61.09;100509.44;1826934;77;22151;-57
2021/07/15 01:08:20;;;;;;;10.18;7.83;;;;;;;21.57;61.29;100509.83;1816459;77;22194;-57
2021/07/15 01:11:05;;;;;;;11.53;7.62;;;;;;;21.53;61.46;100506.47;1834485;77;22171;-64
2021/07/15 01:13:49;;;;;;;11.50;7.62;;;;;;;21.55;61.66;100507.71;1812261;77;22213;-65
2021/07/15 01:16:50;;;;;;;13.48;6.90;;;;;;;21.59;61.78;100509.77;1828363;77;22562;-65
2021/07/15 01:19:59;;;;;;;8.93;7.22;;;;;;;21.62;61.72;100509.62;1809308;77;22175;-57
2021/07/15 01:22:40;;;;;;;8.85;7.00;;;;;;;21.63;61.90;100506.84;1839579;77;22177;-66
2021/07/15 01:25:40;;;;;;;13.22;6.95;;;;;;;21.66;62.03;100511.15;1819315;77;22155;-57
2021/07/15 01:28:43;;;;;;;8.80;6.97;;;;;;;21.60;62.19;100511.48;1821327;77;22189;-65
2021/07/15 01:31:16;;;;;;;13.13;7.25;;;;;;;21.53;62.34;100502.92;1843405;77;22112;-64
2021/07/15 01:33:49;;;;;;;14.33;6.95;;;;;;;21.54;62.61;100505.53;1828947;77;22218;-57
2021/07/15 01:36:23;;;;;;;11.05;7.05;;;;;;;21.53;62.74;100509.61;1834444;77;22631;-64
2021/07/15 01:39:05;;;;;;;9.48;6.83;;;;;;;21.54;62.81;100510.88;1806888;77;22150;-65
2021/07/15 01:42:07;;;;;;;15.68;7.40;;;;;;;21.54;62.97;100512.68;1829231;77;22161;-57
2021/07/15 01:44:59;;;;;;;10.20;7.28;;;;;;;21.56;63.11;100501.90;1823841;77;22543;-57
2021/07/15 01:47:52;;;;;;;10.60;7.17;;;;;;;21.58;63.20;100502.67;1820373;77;22185;-65
2021/07/15 01:50:26;;;;;;;10.10;7.28;;;;;;;21.60;63.14;100504.30;1834514;77;22572;-65
2021/07/15 01:53:18;;;;;;;12.55;7.50;;;;;;;21.62;63.07;100499.76;1809370;77;22620;-65
2021/07/15 01:55:52;;;;;;;13.40;8.03;;;;;;;21.63;63.14;100493.45;1834521;77;22176;-65
2021/07/15 01:58:45;;;;;;;11.33;7.53;;;;;;;21.65;63.18;100493.34;1801578;77;22186;-57
2021/07/15 02:01:18;;;;;;;10.90;7.87;;;;;;;21.66;63.10;100493.73;1839996;77;22134;-58
2021/07/15 02:03:53;;;;;;;13.32;8.10;;;;;;;21.65;63.12;100490.67;1824912;77;22231;-58
2021/07/15 02:06:26;;;;;;;14.87;9.38;;;;;;;21.69;63.08;100496.24;1813664;77;28382;-65
2021/07/15 02:09:19;;;;;;;9.55;7.83;;;;;;;21.76;62.97;100490.08;1807577;77;22658;-65
2021/07/15 02:11:54;;;;;;;16.25;9.50;;;;;;;21.76;62.93;100489.59;1790508;77;22174;-65
2021/07/15 02:14:50;;;;;;;10.43;7.72;;;;;;;21.75;62.87;100490.54;1926577;74;22131;-57
2021/07/15 02:17:23;;;;;;;15.50;8.60;;;;;;;21.74;62.79;100490.64;1824675;77;22163;-57
2021/07/15 02:19:57;;;;;;;11.75;7.80;;;;;;;21.74;62.69;100494.16;1833756;77;22179;-65
2021/07/15 02:22:31;;;;;;;10.28;7.47;;;;;;;21.71;62.71;100501.03;1828639;77;22151;-58
2021/07/15 02:25:23;;;;;;;15.78;8.13;;;;;;;21.67;62.65;100492.33;1851837;77;22163;-65
2021/07/15 02:27:56;;;;;;;12.50;7.62;;;;;;;21.68;62.68;100497.20;1843493;77;22715;-64
2021/07/15 02:30:29;;;;;;;12.68;8.38;;;;;;;21.72;62.60;100495.22;1834494;77;22179;-64
2021/07/15 02:33:08;;;;;;;8.93;7.80;;;;;;;21.73;62.62;100491.59;1811484;77;22720;-64
2021/07/15 02:36:02;;;;;;;9.45;7.75;;;;;;;21.73;62.71;100492.94;1828934;77;22120;-64
2021/07/15 02:38:54;;;;;;;12.18;8.10;;;;;;;21.74;62.64;100491.98;1791544;77;22217;-57
2021/07/15 02:41:27;;;;;;;13.53;7.47;;;;;;;21.76;62.67;100496.77;1828749;77;22167;-57
2021/07/15 02:44:01;;;;;;;14.87;7.35;;;;;;;21.79;62.52;100496.11;1811242;77;22162;-64
2021/07/15 02:46:36;;;;;;;11.20;8.33;;;;;;;21.82;62.20;100491.92;1844867;77;22602;-58
2021/07/15 02:49:09;;;;;;;11.93;9.13;;;;;;;21.83;62.06;100502.17;1809168;77;22174;-64
2021/07/15 02:51:42;;;;;;;25.50;15.90;;;;;;;21.83;62.13;100496.33;1834552;77;22643;-57
2021/07/15 02:54:16;;;;;;;49.83;30.57;;;;;;;21.85;62.11;100497.59;1808290;77;22191;-65
2021/07/15 02:57:31;;;;;;;78.50;46.65;;;;;;;21.87;62.08;100494.81;1832129;77;22167;-65
2021/07/15 03:00:14;;;;;;;128.25;70.05;;;;;;;21.87;62.15;100499.67;1827805;77;22151;-65
2021/07/15 03:02:55;;;;;;;124.97;73.25;;;;;;;21.87;62.25;100495.66;1828520;77;22222;-57
2021/07/15 03:05:52;;;;;;;130.80;73.35;;;;;;;21.90;62.46;100495.97;1852084;77;22147;-64
2021/07/15 03:08:29;;;;;;;111.05;65.32;;;;;;;21.91;62.64;100493.19;1819274;77;22202;-57
2021/07/15 03:11:04;;;;;;;115.75;52.40;;;;;;;21.93;62.86;100485.92;1852852;77;22607;-64
2021/07/15 03:13:38;;;;;;;95.35;42.03;;;;;;;21.97;63.01;100486.62;1815493;77;22202;-57
2021/07/15 03:16:31;;;;;;;102.42;37.25;;;;;;;22.03;63.19;100483.59;1834465;77;22551;-57
2021/07/15 03:19:04;;;;;;;70.90;30.60;;;;;;;22.08;63.40;100481.47;1811133;77;22174;-64
2021/07/15 03:21:41;;;;;;;74.75;29.75;;;;;;;22.12;63.42;100480.34;1851183;77;22618;-57
2021/07/15 03:24:14;;;;;;;48.10;26.27;;;;;;;22.18;63.49;100479.14;1820802;77;22214;-64
2021/07/15 03:26:47;;;;;;;45.08;23.65;;;;;;;22.25;63.61;100484.52;1833732;77;22136;-65
2021/07/15 03:29:20;;;;;;;40.17;24.25;;;;;;;22.33;63.63;100484.05;1807448;77;22222;-65
2021/07/15 03:31:54;;;;;;;34.33;19.90;;;;;;;22.41;63.56;100490.28;1833307;77;22183;-58
2021/07/15 03:34:31;;;;;;;28.40;18.12;;;;;;;22.49;63.59;100491.22;1805828;77;22166;-65
2021/07/15 03:37:23;;;;;;;45.28;19.77;;;;;;;22.56;63.46;100485.83;1818136;77;27991;-57
2021/07/15 03:39:56;;;;;;;33.10;18.07;;;;;;;22.65;63.44;100485.28;1834504;77;22192;-65
2021/07/15 03:42:48;;;;;;;36.50;16.67;;;;;;;22.76;63.31;100484.61;1826394;77;22441;-58
2021/07/15 03:45:22;;;;;;;29.15;16.15;;;;;;;22.86;63.17;100480.89;1834120;77;22163;-58
2021/07/15 03:47:56;;;;;;;22.58;14.60;;;;;;;23.00;62.99;100482.70;1844863;77;22621;-65
2021/07/15 03:50:48;;;;;;;26.12;13.25;;;;;;;23.13;62.74;100479.64;1833571;77;22128;-65
2021/07/15 03:53:21;;;;;;;22.25;14.05;;;;;;;23.27;62.64;100485.95;1805803;77;22222;-65
2021/07/15 03:56:14;;;;;;;19.73;11.33;;;;;;;23.41;62.45;100485.06;1822692;77;22190;-65
2021/07/15 03:58:47;;;;;;;24.00;11.88;;;;;;;23.54;62.31;100478.44;1805972;77;22181;-59
2021/07/15 04:01:21;;;;;;;19.12;11.05;;;;;;;23.68;62.16;100486.43;1822106;77;22142;-65
2021/07/15 04:03:54;;;;;;;19.50;11.63;;;;;;;23.82;61.82;100481.52;1820029;77;22207;-65
2021/07/15 04:06:46;;;;;;;20.35;11.45;;;;;;;23.96;61.73;100477.89;1831612;77;22681;-66
2021/07/15 04:09:19;;;;;;;17.92;9.60;;;;;;;24.14;61.44;100483.00;1806694;77;22194;-66
2021/07/15 04:11:52;;;;;;;14.55;9.95;;;;;;;24.28;61.32;100482.09;1834348;77;22151;-58
2021/07/15 04:15:10;;;;;;;13.93;9.90;;;;;;;24.43;61.08;100488.23;1806111;77;22179;-65
2021/07/15 04:17:57;;;;;;;9.70;8.65;;;;;;;24.62;61.20;100479.24;1822966;77;22237;-66
2021/07/15 04:20:31;;;;;;;12.23;9.10;;;;;;;24.81;61.04;100482.03;1834490;77;22140;-58
2021/07/15 04:23:05;;;;;;;13.38;8.80;;;;;;;24.99;60.37;100483.89;1813747;77;22224;-58
2021/07/15 04:25:38;;;;;;;14.28;9.08;;;;;;;25.12;60.03;100482.52;1850441;77;22594;-66
2021/07/15 04:28:30;;;;;;;14.00;9.08;;;;;;;25.40;59.63;100484.53;1825602;77;22225;-66
2021/07/15 04:31:31;;;;;;;10.78;8.48;;;;;;;25.54;59.25;100479.53;1834283;77;22180;-66
2021/07/15 04:34:04;;;;;;;12.37;8.80;;;;;;;25.72;59.28;100485.86;1811054;77;22629;-66
2021/07/15 04:36:37;;;;;;;11.15;8.80;;;;;;;25.87;59.99;100484.72;1809802;77;22163;-58
2021/07/15 04:39:11;;;;;;;11.97;8.73;;;;;;;26.07;59.79;100479.16;1809612;77;22230;-66
2021/07/15 04:41:50;;;;;;;11.43;8.73;;;;;;;26.34;59.17;100485.28;1825442;77;22145;-57
2021/07/15 04:44:44;;;;;;;12.37;9.15;;;;;;;26.53;58.63;100482.02;1819139;77;22585;-58
2021/07/15 04:47:20;;;;;;;13.83;8.18;;;;;;;26.69;58.44;100481.66;1818916;77;22197;-68
2021/07/15 04:50:14;;;;;;;12.40;9.05;;;;;;;26.93;58.00;100488.84;1851905;77;22179;-67
2021/07/15 04:52:51;;;;;;;12.03;9.55;;;;;;;27.01;58.24;100492.64;1812320;77;28512;-57
2021/07/15 04:55:24;;;;;;;10.93;8.55;;;;;;;27.21;57.66;100483.91;1829215;77;22115;-67
2021/07/15 04:58:16;;;;;;;9.08;8.18;;;;;;;27.42;56.94;100483.48;1821793;77;22593;-68
2021/07/15 05:00:50;;;;;;;12.10;8.58;;;;;;;27.60;56.47;100482.48;1828840;77;22162;-66
2021/07/15 05:03:35;;;;;;;8.15;6.62;;;;;;;27.75;56.96;100480.86;1806427;77;22151;-67
2021/07/15 05:06:09;;;;;;;11.88;7.53;;;;;;;28.09;56.21;100475.80;1805688;77;27967;-67
2021/07/15 05:09:01;;;;;;;9.23;6.40;;;;;;;28.43;54.97;100477.87;1804708;77;22190;-62
2021/07/15 05:11:34;;;;;;;7.95;6.25;;;;;;;28.77;54.27;100476.77;1844858;77;22155;-59
2021/07/15 05:14:07;;;;;;;7.80;5.85;;;;;;;29.02;53.11;100476.81;1802886;77;22210;-58
2021/07/15 05:16:40;;;;;;;8.43;5.87;;;;;;;29.38;52.13;100483.16;1852807;77;22175;-58
2021/07/15 05:19:14;;;;;;;8.58;5.37;;;;;;;29.68;51.41;100478.16;1812171;77;22236;-58
2021/07/15 05:22:06;;;;;;;9.30;5.22;;;;;;;30.02;50.69;100489.61;1815575;77;22595;-67
2021/07/15 05:24:40;;;;;;;7.65;5.67;;;;;;;30.31;49.81;100486.00;1813582;77;22161;-67
2021/07/15 05:27:13;;;;;;;9.20;5.40;;;;;;;30.60;49.25;100485.14;1818327;77;22151;-58
2021/07/15 05:30:07;;;;;;;8.68;5.05;;;;;;;30.86;48.91;100486.17;1821390;77;22202;-68
2021/07/15 05:32:41;;;;;;;7.97;4.87;;;;;;;31.11;48.32;100486.52;1817763;77;22253;-58
2021/07/15 05:35:14;;;;;;;10.03;5.35;;;;;;;31.44;47.58;100490.12;1823979;77;22570;-58
2021/07/15 05:38:07;;;;;;;9.43;5.17;;;;;;;31.98;46.01;100484.77;1808913;77;22170;-58
2021/07/15 05:40:41;;;;;;;10.28;4.80;;;;;;;32.04;46.12;100489.56;1816330;77;22174;-58
2021/07/15 05:43:14;;;;;;;9.43;4.22;;;;;;;32.28;45.80;100482.66;1819073;77;22195;-58
2021/07/15 05:46:08;;;;;;;6.30;3.83;;;;;;;32.73;44.90;100480.71;1818570;77;22148;-58
2021/07/15 05:48:41;;;;;;;6.87;3.80;;;;;;;32.94;43.83;100486.31;1816420;77;23248;-68
2021/07/15 05:51:33;;;;;;;7.55;4.62;;;;;;;33.04;43.37;100485.69;1802520;77;22161;-58
2021/07/15 05:54:06;;;;;;;13.08;5.03;;;;;;;33.22;43.04;100486.08;1810642;77;22232;-68
2021/07/15 05:56:58;;;;;;;8.08;3.60;;;;;;;33.49;42.33;100481.43;1829939;77;22119;-58
2021/07/15 05:59:32;;;;;;;6.17;3.58;;;;;;;33.71;41.73;100484.53;1803916;77;22253;-69
2021/07/15 06:02:44;;;;;;;9.38;3.20;;;;;;;33.99;41.27;100473.34;1841456;77;22685;-59
2021/07/15 06:05:17;;;;;;;6.78;3.55;;;;;;;34.20;40.34;100474.19;1834454;77;22160;-58
2021/07/15 06:07:54;;;;;;;8.23;3.15;;;;;;;34.45;39.86;100474.17;1822508;77;22638;-68
2021/07/15 06:10:46;;;;;;;8.48;3.77;;;;;;;34.72;39.52;100478.38;1830034;77;28410;-58
2021/07/15 06:13:19;;;;;;;10.35;3.45;;;;;;;34.92;38.95;100477.95;1806933;77;22190;-69
2021/07/15 06:16:12;;;;;;;9.33;3.27;;;;;;;35.29;37.33;100479.20;1832445;77;22154;-58
2021/07/15 06:18:45;;;;;;;9.78;3.00;;;;;;;35.53;36.74;100473.27;1798302;77;22613;-68
2021/07/15 06:21:37;;;;;;;6.15;3.40;;;;;;;35.71;36.13;100473.84;1834458;77;22168;-68
2021/07/15 06:24:10;;;;;;;9.73;3.10;;;;;;;35.99;35.15;100473.30;1827404;77;22162;-58
2021/07/15 06:27:06;;;;;;;4.95;2.95;;;;;;;36.25;34.90;100474.77;1815320;77;22673;-69
2021/07/15 06:29:40;;;;;;;5.22;2.80;;;;;;;36.40;34.94;100473.95;1820728;77;22663;-69
2021/07/15 06:32:32;;;;;;;9.90;3.00;;;;;;;36.66;34.67;100467.18;1850080;77;22131;-59
2021/07/15 06:35:07;;;;;;;5.87;3.00;;;;;;;36.88;34.21;100467.61;1830127;77;22171;-59
2021/07/15 06:37:41;;;;;;;7.62;3.02;;;;;;;37.15;33.69;100465.77;1814316;77;28118;-58
2021/07/15 06:40:14;;;;;;;3.80;3.05;;;;;;;37.35;32.93;100464.09;1818359;77;22182;-58
2021/07/15 06:42:49;;;;;;;6.62;2.92;;;;;;;37.60;32.86;100468.39;1813868;77;22671;-58
2021/07/15 06:45:22;;;;;;;9.65;3.05;;;;;;;37.89;32.29;100462.45;1819448;77;22175;-70
2021/07/15 06:48:14;;;;;;;7.72;2.87;;;;;;;38.17;32.01;100459.77;1832196;77;22191;-71
2021/07/15 06:50:48;;;;;;;6.97;3.20;;;;;;;38.29;31.86;100460.06;1819938;77;22159;-68
2021/07/15 06:53:21;;;;;;;9.58;2.80;;;;;;;38.45;31.50;100460.81;1837680;77;22186;-70
2021/07/15 06:55:54;;;;;;;7.47;2.52;;;;;;;38.52;30.95;100451.58;1790854;77;22633;-70
2021/07/15 06:58:28;;;;;;;7.55;3.15;;;;;;;38.75;30.48;100454.55;1813951;77;22202;-58
2021/07/15 07:01:19;;;;;;;10.40;3.30;;;;;;;39.03;29.97;100455.55;1829407;77;22169;-58
2021/07/15 07:03:53;;;;;;;9.13;3.33;;;;;;;39.16;28.71;100449.23;1830655;77;22213;-58
2021/07/15 07:06:45;;;;;;;4.95;2.98;;;;;;;39.31;28.61;100453.20;1834370;77;22189;-58
2021/07/15 07:09:18;;;;;;;6.85;3.17;;;;;;;39.34;28.64;100453.68;1775007;77;22231;-58
2021/07/15 07:11:51;;;;;;;5.80;2.80;;;;;;;39.41;28.63;100453.17;1828328;77;22195;-69
2021/07/15 07:14:24;;;;;;;5.97;2.77;;;;;;;39.56;28.27;100447.48;1797873;77;22185;-69
2021/07/15 07:17:16;;;;;;;8.43;3.20;;;;;;;39.80;27.34;100449.32;1828362;77;22135;-70
2021/07/15 07:19:50;;;;;;;9.53;3.10;;;;;;;39.95;27.47;100450.52;1834333;77;22654;-69
2021/07/15 07:22:23;;;;;;;7.87;3.35;;;;;;;40.28;27.17;100443.29;1833721;77;22179;-69
2021/07/15 07:24:56;;;;;;;6.65;3.20;;;;;;;40.55;27.01;100446.00;1851371;77;22611;-71
2021/07/15 07:27:31;;;;;;;7.05;3.60;;;;;;;40.68;26.08;100443.77;1831822;77;28390;-58
2021/07/15 07:30:24;;;;;;;11.97;3.22;;;;;;;40.74;25.82;100440.14;1834373;77;22132;-70
2021/07/15 07:32:57;;;;;;;8.05;2.80;;;;;;;40.91;25.94;100437.73;1816974;77;22227;-71
2021/07/15 07:35:36;;;;;;;8.63;3.00;;;;;;;41.12;24.97;100431.60;1833529;77;22178;-58
2021/07/15 07:38:10;;;;;;;8.68;3.37;;;;;;;41.25;25.12;100438.98;1841521;77;22205;-58
2021/07/15 07:40:43;;;;;;;6.80;2.70;;;;;;;41.46;25.00;100433.65;1832804;77;22599;-58
2021/07/15 07:43:17;;;;;;;9.05;3.10;;;;;;;41.63;24.49;100433.98;1827314;77;22173;-58
2021/07/15 07:46:29;;;;;;;10.70;3.12;;;;;;;41.70;23.81;100434.78;1831691;77;22204;-72
2021/07/15 07:49:02;;;;;;;11.03;3.27;;;;;;;41.69;23.55;100435.84;1829301;77;22205;-71
2021/07/15 07:51:35;;;;;;;4.60;2.62;;;;;;;41.81;24.46;100435.95;1831698;77;22631;-58
2021/07/15 07:54:08;;;;;;;6.53;2.58;;;;;;;41.90;24.13;100429.61;1810243;77;22320;-58
2021/07/15 07:56:41;;;;;;;7.90;3.17;;;;;;;42.13;23.78;100433.14;1834399;77;22341;-58
2021/07/15 07:59:15;;;;;;;9.10;2.72;;;;;;;42.30;23.70;100430.63;1799367;77;22152;-58
2021/07/15 08:01:48;;;;;;;6.60;2.95;;;;;;;42.51;23.32;100429.92;1832245;77;22183;-72
2021/07/15 08:04:21;;;;;;;7.58;2.77;;;;;;;42.69;23.46;100435.12;1794399;77;22253;-70
2021/07/15 08:06:55;;;;;;;7.70;2.52;;;;;;;42.80;23.36;100435.73;1834387;77;22145;-71
2021/07/15 08:09:30;;;;;;;11.03;3.08;;;;;;;42.96;23.27;100433.45;1781020;77;22149;-58
2021/07/15 08:12:06;;;;;;;6.62;2.60;;;;;;;43.12;22.50;100431.39;1827268;77;22254;-59
2021/07/15 08:14:39;;;;;;;7.12;2.50;;;;;;;43.26;22.23;100427.09;1820892;77;20283;-72
2021/07/15 08:17:32;;;;;;;6.67;2.47;;;;;;;43.22;19.65;100428.08;1839980;77;22686;-58
2021/07/15 08:20:07;;;;;;;8.13;2.70;;;;;;;43.05;21.51;100436.20;1824572;77;22282;-58
2021/07/15 08:22:41;;;;;;;9.50;3.00;;;;;;;43.18;21.58;100434.61;1832567;77;28298;-72
2021/07/15 08:25:33;;;;;;;6.65;2.40;;;;;;;43.30;21.40;100433.30;1834358;77;22255;-58
2021/07/15 08:28:07;;;;;;;7.58;2.40;;;;;;;43.43;21.04;100431.41;1790288;78;22154;-73
2021/07/15 08:30:59;;;;;;;4.95;2.60;;;;;;;43.38;20.75;100427.42;1828196;77;22109;-58
2021/07/15 08:33:33;;;;;;;4.42;1.95;;;;;;;43.24;20.56;100430.11;1807266;77;22332;-72
2021/07/15 08:36:06;;;;;;;7.33;2.10;;;;;;;43.15;20.81;100430.92;1820571;77;22653;-58
2021/07/15 08:38:41;;;;;;;5.30;1.80;;;;;;;43.24;20.92;100432.32;1834148;77;22328;-58
2021/07/15 08:41:34;;;;;;;7.45;2.17;;;;;;;43.56;20.55;100434.51;1852684;77;22100;-59
2021/07/15 08:44:07;;;;;;;5.22;2.02;;;;;;;43.82;20.32;100423.56;1828184;77;22335;-72
2021/07/15 08:46:43;;;;;;;5.47;1.90;;;;;;;44.00;19.82;100423.98;1840179;77;22150;-58
2021/07/15 08:49:17;;;;;;;3.70;1.75;;;;;;;44.16;19.83;100418.28;1817173;77;22165;-58
2021/07/15 08:51:50;;;;;;;8.03;2.25;;;;;;;44.42;19.74;100422.47;1834365;77;22520;-59
2021/07/15 08:54:33;;;;;;;5.78;2.50;;;;;;;44.60;19.70;100427.61;1787426;77;22307;-72
2021/07/15 08:57:17;;;;;;;5.92;2.40;;;;;;;44.79;19.69;100423.28;1818660;77;22285;-73
2021/07/15 08:59:50;;;;;;;3.80;1.70;;;;;;;45.14;18.72;100418.98;1834391;77;22574;-74
2021/07/15 09:02:23;;;;;;;6.35;2.35;;;;;;;45.32;18.61;100414.34;1846526;77;22264;-73
2021/07/15 09:04:56;;;;;;;3.87;2.22;;;;;;;45.26;18.79;100412.53;1819024;77;22138;-72
2021/07/15 09:07:30;;;;;;;3.47;1.92;;;;;;;45.48;18.53;100406.29;1811122;77;22126;-72
2021/07/15 09:10:03;;;;;;;4.45;2.08;;;;;;;45.54;17.86;100409.42;1834347;77;22706;-58
2021/07/15 09:12:37;;;;;;;6.12;2.05;;;;;;;45.30;15.80;100408.20;1814431;77;22272;-72
2021/07/15 09:15:14;;;;;;;5.00;2.12;;;;;;;44.93;17.35;100403.88;1834428;77;22687;-58
2021/07/15 09:17:47;;;;;;;4.37;1.90;;;;;;;45.18;17.52;100402.69;1828419;77;22147;-73
2021/07/15 09:20:23;;;;;;;5.75;1.90;;;;;;;45.50;17.77;100406.32;1832834;77;22287;-73
2021/07/15 09:23:16;;;;;;;5.97;2.80;;;;;;;45.66;16.67;100403.27;1821955;77;22348;-73
2021/07/15 09:25:53;;;;;;;5.95;1.90;;;;;;;45.43;16.44;100402.33;1852775;77;22690;-59
2021/07/15 09:28:29;;;;;;;6.35;1.80;;;;;;;45.15;17.77;100404.57;1819462;77;22705;-72
2021/07/15 09:31:22;;;;;;;4.67;1.95;;;;;;;45.12;16.40;100401.73;1810793;77;22238;-71
2021/07/15 09:33:56;;;;;;;6.45;1.87;;;;;;;45.05;17.09;100399.64;1830779;77;22343;-73
2021/07/15 09:36:29;;;;;;;8.85;2.62;;;;;;;45.13;18.21;100405.36;1834274;77;22117;-73
2021/07/15 09:39:02;;;;;;;4.30;2.22;;;;;;;45.18;18.22;100405.99;1808883;77;22304;-72
2021/07/15 09:41:35;;;;;;;5.53;1.92;;;;;;;45.44;17.76;100403.16;1829487;77;22104;-71
2021/07/15 09:44:08;;;;;;;4.30;1.80;;;;;;;45.70;17.73;100396.12;1827831;77;22327;-72
2021/07/15 09:46:42;;;;;;;5.58;2.12;;;;;;;46.02;16.58;100396.87;1830794;77;22750;-74
2021/07/15 09:49:35;;;;;;;6.95;2.10;;;;;;;46.16;16.31;100399.33;1804255;77;22264;-71
2021/07/15 09:52:08;;;;;;;6.92;2.20;;;;;;;45.88;16.15;100398.34;1820783;77;22126;-58
2021/07/15 09:54:41;;;;;;;3.77;1.85;;;;;;;45.29;13.77;100399.57;1848190;77;22285;-58
2021/07/15 09:57:30;;;;;;;6.03;2.05;;;;;;;45.06;16.66;100395.78;1834401;77;22310;-58
2021/07/15 10:00:30;;;;;;;8.20;2.08;;;;;;;45.28;16.02;100395.94;1833091;77;22120;-59
2021/07/15 10:03:05;;;;;;;3.83;2.05;;;;;;;45.46;15.94;100398.75;1832453;77;22328;-58
2021/07/15 10:06:02;;;;;;;4.97;2.58;;;;;;;45.30;13.88;100399.30;1830063;77;22247;-58
2021/07/15 10:08:34;;;;;;;5.35;1.92;;;;;;;44.95;14.37;100396.14;1836223;77;22755;-58
2021/07/15 10:11:29;;;;;;;5.80;1.87;;;;;;;44.61;16.50;100404.85;1844326;77;22106;-71
2021/07/15 10:14:11;;;;;;;5.45;2.47;;;;;;;44.68;17.33;100401.39;1811367;77;22614;-58
2021/07/15 10:16:46;;;;;;;5.70;2.00;;;;;;;45.19;16.55;100396.56;1852739;77;22060;-58
2021/07/15 10:19:38;;;;;;;5.10;1.85;;;;;;;45.53;14.95;100397.48;1815955;77;22151;-59
2021/07/15 10:22:11;;;;;;;9.13;2.08;;;;;;;45.85;16.02;100391.91;1820871;77;22096;-58
2021/07/15 10:24:45;;;;;;;5.53;1.92;;;;;;;46.03;15.92;100392.99;1813495;77;22183;-58
2021/07/15 10:27:21;;;;;;;2.80;1.80;;;;;;;46.35;15.82;100380.38;1818716;77;22297;-58
2021/07/15 10:29:54;;;;;;;7.97;2.55;;;;;;;46.53;15.65;100385.38;1833626;77;22508;-58
2021/07/15 10:32:29;;;;;;;9.18;2.27;;;;;;;46.48;14.04;100386.13;1851082;77;22543;-58
2021/07/15 10:35:24;;;;;;;4.33;2.17;;;;;;;46.27;13.51;100380.30;1830601;77;22093;-58
2021/07/15 10:37:57;;;;;;;5.47;2.20;;;;;;;46.03;14.35;100388.82;1786978;77;28097;-58
2021/07/15 10:40:49;;;;;;;6.67;1.80;;;;;;;46.46;14.99;100379.98;1834480;77;22508;-71
2021/07/15 10:43:42;;;;;;;6.12;1.90;;;;;;;46.84;13.17;100379.61;1799632;77;22294;-71
2021/07/15 10:46:30;;;;;;;9.05;2.42;;;;;;;46.78;12.84;100373.70;1852728;77;22294;-71
2021/07/15 10:51:42;;;;;;;7.05;2.20;;;;;;;46.45;12.76;100374.98;1820530;77;22126;-58
2021/07/15 10:54:17;;;;;;;4.03;2.50;;;;;;;46.64;13.49;100375.20;1826442;77;22137;-58
2021/07/15 10:56:51;;;;;;;6.62;2.30;;;;;;;46.70;12.29;100370.81;1834499;77;22666;-58
2021/07/15 10:59:43;;;;;;;3.77;1.95;;;;;;;46.00;13.50;100365.70;1781701;77;22158;-58
2021/07/15 11:02:25;;;;;;;3.10;2.30;;;;;;;45.56;13.44;100364.17;1819965;77;22105;-59
2021/07/15 11:05:06;;;;;;;4.72;2.10;;;;;;;45.46;14.51;100359.86;1852775;77;22124;-58
2021/07/15 11:07:58;;;;;;;6.47;2.00;;;;;;;45.53;13.50;100361.89;1815932;77;22170;-59
2021/07/15 11:10:33;;;;;;;3.15;2.10;;;;;;;45.52;12.79;100359.67;1834394;77;22310;-70
2021/07/15 11:13:08;;;;;;;10.23;2.70;;;;;;;45.53;13.79;100366.92;1808658;77;28501;-66
2021/07/15 11:15:57;;;;;;;5.33;2.33;;;;;;;45.88;14.17;100355.25;1834324;77;22125;-65
2021/07/15 11:18:48;;;;;;;6.25;2.25;;;;;;;46.13;14.33;100358.13;1818029;77;22304;-59
2021/07/15 11:21:32;;;;;;;6.08;2.37;;;;;;;45.99;14.48;100353.45;1852740;77;22274;-59
2021/07/15 11:24:11;;;;;;;5.50;2.80;;;;;;;46.13;14.02;100347.00;1795408;77;28009;-66
2021/07/15 11:27:29;;;;;;;6.28;2.50;;;;;;;46.39;14.12;100350.95;1810817;77;22080;-66
2021/07/15 11:30:06;;;;;;;3.92;2.08;;;;;;;46.62;15.58;100353.17;1852724;77;22575;-66
2021/07/15 11:33:21;;;;;;;9.30;2.80;;;;;;;46.94;14.58;100357.16;1810577;77;28033;-66
2021/07/15 11:36:03;;;;;;;7.87;2.22;;;;;;;47.06;14.95;100353.67;1823905;77;22106;-68
2021/07/15 11:38:44;;;;;;;11.50;2.90;;;;;;;47.04;15.35;100357.27;1810142;77;22736;-59
2021/07/15 11:41:18;;;;;;;13.43;3.50;;;;;;;47.13;15.40;100365.44;1834371;77;22129;-59
2021/07/15 11:43:56;;;;;;;11.70;3.27;;;;;;;47.25;15.08;100361.11;1827200;77;22188;-59
2021/07/15 11:46:36;;;;;;;32.45;3.72;;;;;;;47.40;14.45;100358.18;1820242;77;22442;-66
2021/07/15 11:49:26;;;;;;;13.45;2.62;;;;;;;47.55;14.79;100358.84;1792592;77;22567;-67
2021/07/15 11:52:18;;;;;;;5.40;2.55;;;;;;;47.42;13.82;100351.79;1822702;77;22122;-67
2021/07/15 11:55:14;;;;;;;6.58;2.47;;;;;;;47.16;14.36;100349.59;1818767;77;22150;-59
2021/07/15 11:57:47;;;;;;;12.05;2.58;;;;;;;47.08;13.68;100357.57;1816362;77;22155;-59
2021/07/15 12:00:21;;;;;;;10.85;3.20;;;;;;;46.70;14.01;100349.94;1819950;77;22130;-61
2021/07/15 12:02:57;;;;;;;8.85;2.47;;;;;;;46.30;15.88;100348.33;1816594;77;22668;-59
2021/07/15 12:05:49;;;;;;;11.10;3.03;;;;;;;46.10;14.58;100344.20;1816946;77;28005;-59
2021/07/15 12:08:23;;;;;;;6.85;2.37;;;;;;;46.14;15.10;100338.41;1820297;77;22170;-59
2021/07/15 12:10:56;;;;;;;10.30;2.37;;;;;;;46.33;15.16;100348.66;1830397;77;22127;-58
2021/07/15 12:14:10;;;;;;;5.45;2.58;;;;;;;46.64;15.65;100342.63;1820041;77;22253;-59
2021/07/15 12:16:46;;;;;;;7.50;2.50;;;;;;;46.75;14.74;100344.42;1834207;77;22133;-59
2021/07/15 12:26:58;;;;;;;6.87;2.27;;;;;;;47.03;15.68;100335.53;1787282;77;22142;-58
2021/07/15 12:29:32;;;;;;;8.83;2.15;;;;;;;47.29;15.79;100331.63;1791496;77;22192;-58
2021/07/15 12:32:06;;;;;;;3.60;1.92;;;;;;;47.35;14.54;100329.17;1834376;77;22129;-58